sensor_id;sensor_type;location;lat;lon;timestamp;pressure;altitude;pressure_sealevel;temperature;humidity
81547;BME280;71078;48.358;10.960;2023-08-30T00:01:26;95453.88;;;17.66;52.62
81547;BME280;71078;48.358;10.960;2023-08-30T00:03:47;95440.59;;;17.42;53.86
81547;BME280;71078;48.358;10.960;2023-08-30T00:06:07;95449.63;;;17.54;53.12
81547;BME280;71078;48.358;10.960;2023-08-30T00:08:28;95448.06;;;17.64;53.44
81547;BME280;71078;48.358;10.960;2023-08-30T00:10:49;95449.00;;;17.78;52.99
81547;BME280;71078;48.358;10.960;2023-08-30T00:13:10;95451.31;;;17.68;53.25
81547;BME280;71078;48.358;10.960;2023-08-30T00:15:31;95446.28;;;17.66;53.04
81547;BME280;71078;48.358;10.960;2023-08-30T00:17:52;95449.09;;;17.61;53.08
81547;BME280;71078;48.358;10.960;2023-08-30T00:20:12;95442.28;;;17.56;53.37
81547;BME280;71078;48.358;10.960;2023-08-30T00:22:33;95438.25;;;17.57;53.17
81547;BME280;71078;48.358;10.960;2023-08-30T00:24:54;95440.47;;;17.64;53.04
81547;BME280;71078;48.358;10.960;2023-08-30T00:27:15;95449.13;;;17.55;52.93
81547;BME280;71078;48.358;10.960;2023-08-30T00:29:36;95443.56;;;17.55;53.33
81547;BME280;71078;48.358;10.960;2023-08-30T00:31:56;95432.75;;;17.46;53.51
81547;BME280;71078;48.358;10.960;2023-08-30T00:34:17;95447.41;;;17.41;53.60
81547;BME280;71078;48.358;10.960;2023-08-30T00:36:38;95444.31;;;17.56;53.48
81547;BME280;71078;48.358;10.960;2023-08-30T00:38:58;95438.84;;;17.39;53.50
81547;BME280;71078;48.358;10.960;2023-08-30T00:41:19;95439.34;;;17.43;53.82
81547;BME280;71078;48.358;10.960;2023-08-30T00:43:40;95443.34;;;17.48;53.76
81547;BME280;71078;48.358;10.960;2023-08-30T00:46:00;95438.56;;;17.37;53.74
81547;BME280;71078;48.358;10.960;2023-08-30T00:48:21;95443.13;;;17.40;53.85
81547;BME280;71078;48.358;10.960;2023-08-30T00:50:42;95440.31;;;17.51;53.52
81547;BME280;71078;48.358;10.960;2023-08-30T00:53:04;95443.63;;;17.44;53.68
81547;BME280;71078;48.358;10.960;2023-08-30T00:55:26;95441.88;;;17.41;53.64
81547;BME280;71078;48.358;10.960;2023-08-30T00:57:47;95442.09;;;17.37;54.09
81547;BME280;71078;48.358;10.960;2023-08-30T01:00:09;95441.63;;;17.39;54.20
81547;BME280;71078;48.358;10.960;2023-08-30T01:02:31;95439.09;;;17.41;54.15
81547;BME280;71078;48.358;10.960;2023-08-30T01:04:52;95434.25;;;17.47;53.88
81547;BME280;71078;48.358;10.960;2023-08-30T01:07:12;95441.31;;;17.54;53.91
81547;BME280;71078;48.358;10.960;2023-08-30T01:09:33;95436.28;;;17.47;54.23
81547;BME280;71078;48.358;10.960;2023-08-30T01:14:33;95437.25;;;17.55;54.07
81547;BME280;71078;48.358;10.960;2023-08-30T01:16:58;95434.53;;;17.44;53.29
81547;BME280;71078;48.358;10.960;2023-08-30T01:22:21;95434.50;;;17.49;53.79
81547;BME280;71078;48.358;10.960;2023-08-30T01:24:53;95432.25;;;17.48;53.66
81547;BME280;71078;48.358;10.960;2023-08-30T01:27:16;95426.97;;;17.39;53.79
81547;BME280;71078;48.358;10.960;2023-08-30T01:29:42;95432.25;;;17.48;53.59
81547;BME280;71078;48.358;10.960;2023-08-30T01:32:04;95438.75;;;17.56;53.76
81547;BME280;71078;48.358;10.960;2023-08-30T01:34:26;95436.25;;;17.52;53.84
81547;BME280;71078;48.358;10.960;2023-08-30T01:36:47;95441.56;;;17.50;53.73
81547;BME280;71078;48.358;10.960;2023-08-30T01:39:10;95434.78;;;17.46;53.60
81547;BME280;71078;48.358;10.960;2023-08-30T01:41:32;95435.00;;;17.53;53.42
81547;BME280;71078;48.358;10.960;2023-08-30T01:43:55;95432.72;;;17.52;53.53
81547;BME280;71078;48.358;10.960;2023-08-30T01:46:17;95434.97;;;17.59;53.43
81547;BME280;71078;48.358;10.960;2023-08-30T01:48:40;95430.44;;;17.56;53.58
81547;BME280;71078;48.358;10.960;2023-08-30T01:51:02;95429.94;;;17.52;53.65
81547;BME280;71078;48.358;10.960;2023-08-30T01:53:24;95428.22;;;17.43;53.64
81547;BME280;71078;48.358;10.960;2023-08-30T01:55:46;95434.78;;;17.46;53.41
81547;BME280;71078;48.358;10.960;2023-08-30T01:58:07;95432.78;;;17.41;53.58
81547;BME280;71078;48.358;10.960;2023-08-30T02:00:29;95438.56;;;17.43;53.51
81547;BME280;71078;48.358;10.960;2023-08-30T02:02:50;95427.28;;;17.24;53.71
81547;BME280;71078;48.358;10.960;2023-08-30T02:05:10;95434.56;;;17.27;54.03
81547;BME280;71078;48.358;10.960;2023-08-30T02:07:50;95434.06;;;17.28;53.91
81547;BME280;71078;48.358;10.960;2023-08-30T02:10:15;95430.28;;;17.26;53.66
81547;BME280;71078;48.358;10.960;2023-08-30T02:12:47;95425.72;;;17.34;53.71
81547;BME280;71078;48.358;10.960;2023-08-30T02:15:10;95432.25;;;17.36;53.48
81547;BME280;71078;48.358;10.960;2023-08-30T02:17:32;95433.41;;;17.05;53.86
81547;BME280;71078;48.358;10.960;2023-08-30T02:19:53;95420.94;;;17.29;53.60
81547;BME280;71078;48.358;10.960;2023-08-30T02:22:14;95428.03;;;17.24;53.53
81547;BME280;71078;48.358;10.960;2023-08-30T02:24:35;95423.97;;;17.31;53.21
81547;BME280;71078;48.358;10.960;2023-08-30T02:26:55;95423.19;;;17.36;53.43
81547;BME280;71078;48.358;10.960;2023-08-30T02:29:16;95422.22;;;17.28;53.63
81547;BME280;71078;48.358;10.960;2023-08-30T02:31:36;95428.59;;;17.06;53.89
81547;BME280;71078;48.358;10.960;2023-08-30T02:33:57;95429.31;;;17.18;53.59
81547;BME280;71078;48.358;10.960;2023-08-30T02:36:17;95423.75;;;17.18;53.83
81547;BME280;71078;48.358;10.960;2023-08-30T02:38:38;95416.47;;;17.15;54.23
81547;BME280;71078;48.358;10.960;2023-08-30T02:40:58;95412.41;;;17.16;53.92
81547;BME280;71078;48.358;10.960;2023-08-30T02:43:19;95405.63;;;17.11;54.24
81547;BME280;71078;48.358;10.960;2023-08-30T02:45:39;95412.19;;;17.14;53.50
81547;BME280;71078;48.358;10.960;2023-08-30T02:48:00;95410.63;;;17.18;53.73
81547;BME280;71078;48.358;10.960;2023-08-30T02:50:20;95413.94;;;17.11;53.94
81547;BME280;71078;48.358;10.960;2023-08-30T02:52:41;95417.69;;;17.19;53.93
81547;BME280;71078;48.358;10.960;2023-08-30T02:55:01;95421.50;;;17.16;54.41
81547;BME280;71078;48.358;10.960;2023-08-30T02:57:22;95416.19;;;17.18;53.77
81547;BME280;71078;48.358;10.960;2023-08-30T02:59:42;95410.34;;;17.27;53.76
81547;BME280;71078;48.358;10.960;2023-08-30T03:02:02;95409.34;;;17.25;53.94
81547;BME280;71078;48.358;10.960;2023-08-30T03:04:23;95414.38;;;17.26;53.87
81547;BME280;71078;48.358;10.960;2023-08-30T03:06:43;95419.47;;;17.22;54.24
81547;BME280;71078;48.358;10.960;2023-08-30T03:09:04;95409.63;;;17.21;54.00
81547;BME280;71078;48.358;10.960;2023-08-30T03:11:26;95422.22;;;17.22;53.64
81547;BME280;71078;48.358;10.960;2023-08-30T03:13:47;95414.97;;;17.08;53.25
81547;BME280;71078;48.358;10.960;2023-08-30T03:16:14;95417.47;;;17.12;54.13
81547;BME280;71078;48.358;10.960;2023-08-30T03:18:36;95414.19;;;17.13;53.92
81547;BME280;71078;48.358;10.960;2023-08-30T03:21:00;95417.22;;;17.15;53.94
81547;BME280;71078;48.358;10.960;2023-08-30T03:23:22;95416.72;;;17.11;53.80
81547;BME280;71078;48.358;10.960;2023-08-30T03:25:43;95425.06;;;17.05;54.12
81547;BME280;71078;48.358;10.960;2023-08-30T03:28:04;95416.00;;;17.05;53.81
81547;BME280;71078;48.358;10.960;2023-08-30T03:30:24;95427.09;;;17.05;53.97
81547;BME280;71078;48.358;10.960;2023-08-30T03:32:45;95429.13;;;17.04;54.16
81547;BME280;71078;48.358;10.960;2023-08-30T03:35:05;95431.88;;;17.10;53.99
81547;BME280;71078;48.358;10.960;2023-08-30T03:37:26;95432.88;;;17.07;53.79
81547;BME280;71078;48.358;10.960;2023-08-30T03:39:47;95431.34;;;17.12;54.08
81547;BME280;71078;48.358;10.960;2023-08-30T03:42:08;95435.91;;;17.09;54.09
81547;BME280;71078;48.358;10.960;2023-08-30T03:44:28;95426.81;;;17.09;53.79
81547;BME280;71078;48.358;10.960;2023-08-30T03:46:49;95425.28;;;17.13;53.76
81547;BME280;71078;48.358;10.960;2023-08-30T03:49:09;95426.06;;;17.14;53.52
81547;BME280;71078;48.358;10.960;2023-08-30T03:51:30;95432.13;;;17.12;53.86
81547;BME280;71078;48.358;10.960;2023-08-30T03:53:50;95434.66;;;17.10;53.53
81547;BME280;71078;48.358;10.960;2023-08-30T03:56:11;95435.16;;;17.09;53.93
81547;BME280;71078;48.358;10.960;2023-08-30T03:58:32;95431.13;;;17.10;53.61
81547;BME280;71078;48.358;10.960;2023-08-30T04:00:53;95435.66;;;17.13;53.92
81547;BME280;71078;48.358;10.960;2023-08-30T04:03:15;95432.13;;;17.07;53.95
81547;BME280;71078;48.358;10.960;2023-08-30T04:05:36;95441.50;;;16.98;54.24
81547;BME280;71078;48.358;10.960;2023-08-30T04:07:57;95429.13;;;16.99;53.79
81547;BME280;71078;48.358;10.960;2023-08-30T04:10:17;95437.97;;;16.97;54.51
81547;BME280;71078;48.358;10.960;2023-08-30T04:12:38;95431.47;;;16.78;54.26
81547;BME280;71078;48.358;10.960;2023-08-30T04:14:58;95435.03;;;16.62;54.45
81547;BME280;71078;48.358;10.960;2023-08-30T04:17:19;95437.50;;;16.77;54.41
81547;BME280;71078;48.358;10.960;2023-08-30T04:19:40;95439.75;;;16.89;54.06
81547;BME280;71078;48.358;10.960;2023-08-30T04:22:00;95437.25;;;16.80;54.20
81547;BME280;71078;48.358;10.960;2023-08-30T04:24:21;95437.25;;;16.86;53.92
81547;BME280;71078;48.358;10.960;2023-08-30T04:26:41;95429.94;;;16.77;53.99
81547;BME280;71078;48.358;10.960;2023-08-30T04:29:02;95435.72;;;16.90;53.72
81547;BME280;71078;48.358;10.960;2023-08-30T04:31:23;95430.19;;;16.85;53.68
81547;BME280;71078;48.358;10.960;2023-08-30T04:33:44;95439.53;;;16.82;53.33
81547;BME280;71078;48.358;10.960;2023-08-30T04:36:04;95428.91;;;16.86;53.71
81547;BME280;71078;48.358;10.960;2023-08-30T04:38:25;95422.09;;;16.92;53.67
81547;BME280;71078;48.358;10.960;2023-08-30T04:40:49;95429.44;;;16.84;53.96
81547;BME280;71078;48.358;10.960;2023-08-30T04:43:10;95426.38;;;16.93;53.35
81547;BME280;71078;48.358;10.960;2023-08-30T04:45:30;95439.47;;;16.98;53.15
81547;BME280;71078;48.358;10.960;2023-08-30T04:47:52;95429.63;;;16.97;53.15
81547;BME280;71078;48.358;10.960;2023-08-30T04:50:13;95429.91;;;16.94;53.27
81547;BME280;71078;48.358;10.960;2023-08-30T04:52:34;95433.72;;;16.85;53.23
81547;BME280;71078;48.358;10.960;2023-08-30T04:54:55;95434.69;;;16.93;53.15
81547;BME280;71078;48.358;10.960;2023-08-30T04:57:16;95436.19;;;17.00;53.10
81547;BME280;71078;48.358;10.960;2023-08-30T04:59:37;95446.78;;;17.01;53.13
81547;BME280;71078;48.358;10.960;2023-08-30T05:02:00;95445.31;;;16.84;53.55
81547;BME280;71078;48.358;10.960;2023-08-30T05:04:20;95431.19;;;16.87;53.86
81547;BME280;71078;48.358;10.960;2023-08-30T05:06:41;95431.16;;;16.98;53.37
81547;BME280;71078;48.358;10.960;2023-08-30T05:09:02;95442.00;;;16.96;53.32
81547;BME280;71078;48.358;10.960;2023-08-30T05:11:22;95435.50;;;16.77;53.35
81547;BME280;71078;48.358;10.960;2023-08-30T05:13:43;95435.47;;;16.88;53.52
81547;BME280;71078;48.358;10.960;2023-08-30T05:16:04;95423.59;;;16.99;53.46
81547;BME280;71078;48.358;10.960;2023-08-30T05:18:25;95418.28;;;17.01;53.09
81547;BME280;71078;48.358;10.960;2023-08-30T05:20:45;95417.25;;;17.10;53.14
81547;BME280;71078;48.358;10.960;2023-08-30T05:23:06;95413.72;;;17.09;53.17
81547;BME280;71078;48.358;10.960;2023-08-30T05:25:27;95423.56;;;17.04;53.08
81547;BME280;71078;48.358;10.960;2023-08-30T05:27:47;95422.06;;;17.03;53.55
81547;BME280;71078;48.358;10.960;2023-08-30T05:30:09;95433.19;;;16.92;53.21
81547;BME280;71078;48.358;10.960;2023-08-30T05:32:30;95444.28;;;16.98;53.40
81547;BME280;71078;48.358;10.960;2023-08-30T05:34:52;95445.28;;;17.00;53.23
81547;BME280;71078;48.358;10.960;2023-08-30T05:37:12;95439.47;;;16.98;53.26
81547;BME280;71078;48.358;10.960;2023-08-30T05:39:34;95445.78;;;16.99;53.00
81547;BME280;71078;48.358;10.960;2023-08-30T05:41:54;95443.75;;;17.05;53.35
81547;BME280;71078;48.358;10.960;2023-08-30T05:44:15;95437.94;;;17.09;53.39
81547;BME280;71078;48.358;10.960;2023-08-30T05:46:36;95441.75;;;17.00;53.18
81547;BME280;71078;48.358;10.960;2023-08-30T05:48:56;95436.19;;;17.05;53.12
81547;BME280;71078;48.358;10.960;2023-08-30T05:51:17;95434.16;;;17.00;53.09
81547;BME280;71078;48.358;10.960;2023-08-30T05:53:40;95428.66;;;16.89;53.08
81547;BME280;71078;48.358;10.960;2023-08-30T05:56:01;95443.47;;;17.09;52.83
81547;BME280;71078;48.358;10.960;2023-08-30T05:58:21;95431.69;;;16.86;52.98
81547;BME280;71078;48.358;10.960;2023-08-30T06:00:42;95443.97;;;17.13;52.61
81547;BME280;71078;48.358;10.960;2023-08-30T06:03:03;95436.66;;;17.10;52.56
81547;BME280;71078;48.358;10.960;2023-08-30T06:05:24;95451.00;;;17.25;52.26
81547;BME280;71078;48.358;10.960;2023-08-30T06:07:45;95444.41;;;17.28;52.69
81547;BME280;71078;48.358;10.960;2023-08-30T06:10:06;95445.72;;;17.16;52.70
81547;BME280;71078;48.358;10.960;2023-08-30T06:12:27;95449.75;;;17.20;53.26
81547;BME280;71078;48.358;10.960;2023-08-30T06:14:48;95432.59;;;17.22;53.25
81547;BME280;71078;48.358;10.960;2023-08-30T06:17:12;95436.59;;;17.26;52.76
81547;BME280;71078;48.358;10.960;2023-08-30T06:19:33;95440.63;;;17.31;53.43
81547;BME280;71078;48.358;10.960;2023-08-30T06:21:53;95443.16;;;17.29;52.97
81547;BME280;71078;48.358;10.960;2023-08-30T06:24:14;95450.78;;;17.17;53.37
81547;BME280;71078;48.358;10.960;2023-08-30T06:26:35;95452.28;;;17.18;53.29
81547;BME280;71078;48.358;10.960;2023-08-30T06:28:55;95462.13;;;17.19;53.47
81547;BME280;71078;48.358;10.960;2023-08-30T06:31:24;95458.81;;;17.26;52.79
81547;BME280;71078;48.358;10.960;2023-08-30T06:33:47;95457.00;;;17.34;53.08
81547;BME280;71078;48.358;10.960;2023-08-30T06:36:08;95449.94;;;17.33;52.87
81547;BME280;71078;48.358;10.960;2023-08-30T06:38:31;95449.47;;;17.29;52.98
81547;BME280;71078;48.358;10.960;2023-08-30T06:40:52;95450.94;;;17.47;52.64
81547;BME280;71078;48.358;10.960;2023-08-30T06:43:14;95453.16;;;17.54;52.55
81547;BME280;71078;48.358;10.960;2023-08-30T06:45:35;95453.91;;;17.55;52.05
81547;BME280;71078;48.358;10.960;2023-08-30T06:47:55;95452.28;;;17.18;52.53
81547;BME280;71078;48.358;10.960;2023-08-30T06:50:16;95454.78;;;17.27;52.92
81547;BME280;71078;48.358;10.960;2023-08-30T06:52:37;95454.09;;;16.99;53.31
81547;BME280;71078;48.358;10.960;2023-08-30T06:54:58;95457.44;;;16.47;54.43
81547;BME280;71078;48.358;10.960;2023-08-30T06:57:18;95450.13;;;16.72;54.39
81547;BME280;71078;48.358;10.960;2023-08-30T06:59:39;95439.19;;;17.08;53.24
81547;BME280;71078;48.358;10.960;2023-08-30T07:01:59;95444.84;;;16.74;54.25
81547;BME280;71078;48.358;10.960;2023-08-30T07:04:20;95448.53;;;17.04;53.75
81547;BME280;71078;48.358;10.960;2023-08-30T07:06:41;95439.72;;;17.06;53.63
81547;BME280;71078;48.358;10.960;2023-08-30T07:09:01;95448.63;;;16.71;54.22
81547;BME280;71078;48.358;10.960;2023-08-30T07:11:23;95443.97;;;17.13;53.90
81547;BME280;71078;48.358;10.960;2023-08-30T07:13:53;95435.13;;;17.20;54.01
81547;BME280;71078;48.358;10.960;2023-08-30T07:16:14;95429.69;;;17.55;52.78
81547;BME280;71078;48.358;10.960;2023-08-30T07:18:35;95426.97;;;17.39;52.76
81547;BME280;71078;48.358;10.960;2023-08-30T07:20:56;95433.34;;;17.22;53.57
81547;BME280;71078;48.358;10.960;2023-08-30T07:23:17;95427.88;;;17.63;53.09
81547;BME280;71078;48.358;10.960;2023-08-30T07:25:38;95424.19;;;17.33;52.87
81547;BME280;71078;48.358;10.960;2023-08-30T07:27:59;95427.06;;;17.16;53.60
81547;BME280;71078;48.358;10.960;2023-08-30T07:30:20;95430.00;;;17.35;53.10
81547;BME280;71078;48.358;10.960;2023-08-30T07:32:41;95423.06;;;17.64;51.97
81547;BME280;71078;48.358;10.960;2023-08-30T07:35:02;95421.81;;;17.59;52.88
81547;BME280;71078;48.358;10.960;2023-08-30T07:37:25;95421.59;;;17.93;52.38
81547;BME280;71078;48.358;10.960;2023-08-30T07:39:46;95427.06;;;18.04;52.22
81547;BME280;71078;48.358;10.960;2023-08-30T07:42:07;95414.47;;;17.97;51.95
81547;BME280;71078;48.358;10.960;2023-08-30T07:44:27;95426.78;;;18.08;51.28
81547;BME280;71078;48.358;10.960;2023-08-30T07:46:48;95432.44;;;17.55;52.34
81547;BME280;71078;48.358;10.960;2023-08-30T07:49:08;95434.81;;;17.81;51.88
81547;BME280;71078;48.358;10.960;2023-08-30T07:51:29;95440.72;;;18.02;51.94
81547;BME280;71078;48.358;10.960;2023-08-30T07:53:50;95438.81;;;18.21;51.61
81547;BME280;71078;48.358;10.960;2023-08-30T07:56:10;95436.28;;;18.23;51.28
81547;BME280;71078;48.358;10.960;2023-08-30T07:58:31;95433.81;;;18.50;51.76
81547;BME280;71078;48.358;10.960;2023-08-30T08:00:52;95431.78;;;18.75;50.90
81547;BME280;71078;48.358;10.960;2023-08-30T08:03:13;95432.88;;;18.66;50.75
81547;BME280;71078;48.358;10.960;2023-08-30T08:05:35;95433.88;;;19.17;49.49
81547;BME280;71078;48.358;10.960;2023-08-30T08:07:59;95436.53;;;19.28;49.64
81547;BME280;71078;48.358;10.960;2023-08-30T08:10:20;95444.06;;;19.34;48.71
81547;BME280;71078;48.358;10.960;2023-08-30T08:12:42;95445.91;;;19.69;48.82
81547;BME280;71078;48.358;10.960;2023-08-30T08:15:03;95440.78;;;19.54;48.31
81547;BME280;71078;48.358;10.960;2023-08-30T08:17:24;95441.78;;;19.94;48.04
81547;BME280;71078;48.358;10.960;2023-08-30T08:19:44;95442.75;;;19.78;47.69
81547;BME280;71078;48.358;10.960;2023-08-30T08:22:05;95419.63;;;19.64;47.81
81547;BME280;71078;48.358;10.960;2023-08-30T08:24:26;95436.88;;;19.81;47.65
81547;BME280;71078;48.358;10.960;2023-08-30T08:26:46;95435.91;;;19.98;47.48
81547;BME280;71078;48.358;10.960;2023-08-30T08:29:07;95441.13;;;19.26;47.81
81547;BME280;71078;48.358;10.960;2023-08-30T08:31:28;95435.06;;;20.03;46.92
81547;BME280;71078;48.358;10.960;2023-08-30T08:34:06;95441.84;;;20.71;46.77
81547;BME280;71078;48.358;10.960;2023-08-30T08:36:27;95443.78;;;20.76;44.96
81547;BME280;71078;48.358;10.960;2023-08-30T08:38:48;95434.25;;;21.25;45.11
81547;BME280;71078;48.358;10.960;2023-08-30T08:41:12;95436.50;;;21.52;45.68
81547;BME280;71078;48.358;10.960;2023-08-30T08:43:35;95432.88;;;21.31;44.22
81547;BME280;71078;48.358;10.960;2023-08-30T08:46:00;95436.72;;;21.02;43.91
81547;BME280;71078;48.358;10.960;2023-08-30T08:48:20;95424.69;;;21.20;44.13
81547;BME280;71078;48.358;10.960;2023-08-30T08:50:43;95427.91;;;21.24;43.73
81547;BME280;71078;48.358;10.960;2023-08-30T08:53:04;95428.44;;;21.36;44.51
81547;BME280;71078;48.358;10.960;2023-08-30T08:55:26;95426.31;;;21.29;43.77
81547;BME280;71078;48.358;10.960;2023-08-30T08:57:50;95425.09;;;21.50;43.82
81547;BME280;71078;48.358;10.960;2023-08-30T09:00:12;95427.38;;;21.86;43.08
81547;BME280;71078;48.358;10.960;2023-08-30T09:02:33;95427.38;;;21.86;42.38
81547;BME280;71078;48.358;10.960;2023-08-30T09:04:54;95427.03;;;22.03;42.50
81547;BME280;71078;48.358;10.960;2023-08-30T09:07:14;95420.00;;;21.75;42.92
81547;BME280;71078;48.358;10.960;2023-08-30T09:09:35;95421.88;;;21.20;43.45
81547;BME280;71078;48.358;10.960;2023-08-30T09:11:56;95433.06;;;21.07;43.15
81547;BME280;71078;48.358;10.960;2023-08-30T09:14:18;95421.66;;;20.92;43.28
81547;BME280;71078;48.358;10.960;2023-08-30T09:16:38;95407.06;;;21.38;42.64
81547;BME280;71078;48.358;10.960;2023-08-30T09:19:03;95417.19;;;21.75;42.62
81547;BME280;71078;48.358;10.960;2023-08-30T09:21:31;95418.53;;;21.61;42.49
81547;BME280;71078;48.358;10.960;2023-08-30T09:24:02;95428.78;;;21.32;41.76
81547;BME280;71078;48.358;10.960;2023-08-30T09:26:25;95422.00;;;21.28;42.63
81547;BME280;71078;48.358;10.960;2023-08-30T09:28:45;95414.91;;;21.00;42.42
81547;BME280;71078;48.358;10.960;2023-08-30T09:31:06;95422.22;;;20.90;42.36
81547;BME280;71078;48.358;10.960;2023-08-30T09:33:42;95419.72;;;20.86;42.58
81547;BME280;71078;48.358;10.960;2023-08-30T09:36:02;95421.22;;;20.74;43.28
81547;BME280;71078;48.358;10.960;2023-08-30T09:38:29;95417.13;;;20.62;43.63
81547;BME280;71078;48.358;10.960;2023-08-30T09:40:51;95421.53;;;20.71;43.74
81547;BME280;71078;48.358;10.960;2023-08-30T09:43:13;95415.00;;;20.95;42.34
81547;BME280;71078;48.358;10.960;2023-08-30T09:45:34;95405.78;;;21.26;40.80
81547;BME280;71078;48.358;10.960;2023-08-30T09:47:55;95407.88;;;21.94;39.99
81547;BME280;71078;48.358;10.960;2023-08-30T09:50:20;95405.34;;;22.58;39.51
81547;BME280;71078;48.358;10.960;2023-08-30T09:52:41;95398.88;;;22.42;38.72
81547;BME280;71078;48.358;10.960;2023-08-30T09:55:02;95408.34;;;22.18;38.76
81547;BME280;71078;48.358;10.960;2023-08-30T09:57:24;95416.88;;;21.79;39.54
81547;BME280;71078;48.358;10.960;2023-08-30T09:59:44;95413.69;;;21.62;40.50
81547;BME280;71078;48.358;10.960;2023-08-30T10:02:07;95415.25;;;20.51;41.61
81547;BME280;71078;48.358;10.960;2023-08-30T10:04:29;95406.06;;;20.24;42.26
81547;BME280;71078;48.358;10.960;2023-08-30T10:06:51;95415.03;;;20.49;42.24
81547;BME280;71078;48.358;10.960;2023-08-30T10:09:12;95409.44;;;20.36;42.59
81547;BME280;71078;48.358;10.960;2023-08-30T10:11:38;95409.69;;;20.51;42.78
81547;BME280;71078;48.358;10.960;2023-08-30T10:13:59;95399.41;;;20.60;42.61
81547;BME280;71078;48.358;10.960;2023-08-30T10:16:22;95409.31;;;20.74;43.26
81547;BME280;71078;48.358;10.960;2023-08-30T10:18:47;95396.31;;;20.63;42.71
81547;BME280;71078;48.358;10.960;2023-08-30T10:21:26;95404.69;;;20.63;43.10
81547;BME280;71078;48.358;10.960;2023-08-30T10:23:49;95396.06;;;20.16;43.10
81547;BME280;71078;48.358;10.960;2023-08-30T10:26:12;95396.59;;;20.14;42.61
81547;BME280;71078;48.358;10.960;2023-08-30T10:28:34;95392.50;;;20.47;41.75
81547;BME280;71078;48.358;10.960;2023-08-30T10:30:56;95395.19;;;20.53;41.20
81547;BME280;71078;48.358;10.960;2023-08-30T10:33:17;95401.94;;;20.44;41.84
81547;BME280;71078;48.358;10.960;2023-08-30T10:35:49;95392.47;;;20.34;42.39
81547;BME280;71078;48.358;10.960;2023-08-30T10:38:11;95400.28;;;20.22;42.54
81547;BME280;71078;48.358;10.960;2023-08-30T10:40:32;95387.28;;;20.25;41.38
81547;BME280;71078;48.358;10.960;2023-08-30T10:43:03;95397.63;;;19.98;42.28
81547;BME280;71078;48.358;10.960;2023-08-30T10:45:24;95397.84;;;20.45;41.79
81547;BME280;71078;48.358;10.960;2023-08-30T10:47:54;95393.75;;;20.33;41.50
81547;BME280;71078;48.358;10.960;2023-08-30T10:50:15;95396.63;;;20.73;41.28
81547;BME280;71078;48.358;10.960;2023-08-30T10:52:36;95386.97;;;20.87;41.22
81547;BME280;71078;48.358;10.960;2023-08-30T10:57:28;95378.28;;;20.90;41.38
81547;BME280;71078;48.358;10.960;2023-08-30T11:02:38;95393.41;;;21.08;40.75
81547;BME280;71078;48.358;10.960;2023-08-30T11:05:00;95395.03;;;21.04;41.28
81547;BME280;71078;48.358;10.960;2023-08-30T11:07:21;95387.41;;;21.04;40.70
81547;BME280;71078;48.358;10.960;2023-08-30T11:09:43;95387.72;;;21.14;40.65
81547;BME280;71078;48.358;10.960;2023-08-30T11:12:05;95385.78;;;21.35;41.00
81547;BME280;71078;48.358;10.960;2023-08-30T11:14:25;95380.00;;;21.33;40.72
81547;BME280;71078;48.358;10.960;2023-08-30T11:16:46;95371.97;;;21.64;41.01
81547;BME280;71078;48.358;10.960;2023-08-30T11:19:08;95382.84;;;21.54;40.44
81547;BME280;71078;48.358;10.960;2023-08-30T11:21:33;95381.00;;;21.57;40.66
81547;BME280;71078;48.358;10.960;2023-08-30T11:23:54;95377.47;;;21.56;40.52
81547;BME280;71078;48.358;10.960;2023-08-30T11:26:15;95375.00;;;21.52;40.55
81547;BME280;71078;48.358;10.960;2023-08-30T11:28:36;95372.63;;;21.57;41.11
81547;BME280;71078;48.358;10.960;2023-08-30T11:30:57;95363.81;;;21.86;40.01
81547;BME280;71078;48.358;10.960;2023-08-30T11:33:18;95369.94;;;21.85;39.58
81547;BME280;71078;48.358;10.960;2023-08-30T11:35:42;95374.53;;;21.96;39.86
81547;BME280;71078;48.358;10.960;2023-08-30T11:38:03;95368.25;;;21.82;39.31
81547;BME280;71078;48.358;10.960;2023-08-30T11:40:23;95368.25;;;21.82;39.53
81547;BME280;71078;48.358;10.960;2023-08-30T11:42:44;95358.28;;;21.94;39.33
81547;BME280;71078;48.358;10.960;2023-08-30T11:45:06;95362.94;;;21.92;38.96
81547;BME280;71078;48.358;10.960;2023-08-30T11:47:27;95360.88;;;21.92;38.75
81547;BME280;71078;48.358;10.960;2023-08-30T11:49:48;95364.28;;;21.77;39.39
81547;BME280;71078;48.358;10.960;2023-08-30T11:52:10;95366.00;;;21.80;38.72
81547;BME280;71078;48.358;10.960;2023-08-30T11:54:31;95374.94;;;21.32;39.28
81547;BME280;71078;48.358;10.960;2023-08-30T11:56:52;95363.34;;;21.14;39.80
81547;BME280;71078;48.358;10.960;2023-08-30T11:59:22;95369.34;;;21.18;40.04
81547;BME280;71078;48.358;10.960;2023-08-30T12:01:42;95360.69;;;21.56;40.03
81547;BME280;71078;48.358;10.960;2023-08-30T12:04:10;95354.34;;;21.90;39.42
81547;BME280;71078;48.358;10.960;2023-08-30T12:06:31;95361.63;;;20.85;40.14
81547;BME280;71078;48.358;10.960;2023-08-30T12:08:57;95359.88;;;21.21;40.07
81547;BME280;71078;48.358;10.960;2023-08-30T12:11:19;95357.97;;;21.03;40.82
81547;BME280;71078;48.358;10.960;2023-08-30T12:13:40;95352.13;;;21.41;39.76
81547;BME280;71078;48.358;10.960;2023-08-30T12:16:02;95357.00;;;21.95;39.36
81547;BME280;71078;48.358;10.960;2023-08-30T12:18:23;95356.41;;;22.10;38.60
81547;BME280;71078;48.358;10.960;2023-08-30T12:21:01;95350.28;;;22.11;38.46
81547;BME280;71078;48.358;10.960;2023-08-30T12:23:30;95356.41;;;22.10;37.96
81547;BME280;71078;48.358;10.960;2023-08-30T12:28:25;95343.66;;;22.22;38.34
81547;BME280;71078;48.358;10.960;2023-08-30T12:30:46;95344.19;;;22.21;38.16
81547;BME280;71078;48.358;10.960;2023-08-30T12:33:07;95350.06;;;22.30;37.32
81547;BME280;71078;48.358;10.960;2023-08-30T12:35:28;95347.03;;;22.49;38.22